createdAt,value
2022-12-03T00:00:49.820Z,97698.19
2022-12-03T00:04:52.917Z,97699.72
2022-12-03T00:08:54.568Z,97700.06
2022-12-03T00:12:55.924Z,97706.09
2022-12-03T00:16:57.287Z,97696.88
2022-12-03T00:21:00.055Z,97700.00
2022-12-03T00:25:01.464Z,97694.81
2022-12-03T00:29:03.221Z,97692.84
2022-12-03T00:33:04.714Z,97692.75
2022-12-03T00:37:07.460Z,97686.25
2022-12-03T00:41:08.893Z,97684.78
2022-12-03T00:45:10.428Z,97685.50
2022-12-03T00:49:11.809Z,97694.16
2022-12-03T00:53:14.533Z,97694.44
2022-12-03T00:57:15.915Z,97692.25
2022-12-03T01:01:17.384Z,97688.34
2022-12-03T01:05:18.869Z,97691.44
2022-12-03T01:09:21.741Z,97694.16
2022-12-03T01:13:23.136Z,97694.75
2022-12-03T01:17:24.546Z,97690.50
2022-12-03T01:21:25.949Z,97683.03
2022-12-03T01:25:28.721Z,97679.34
2022-12-03T01:29:30.068Z,97685.44
2022-12-03T01:33:31.455Z,97692.91
2022-12-03T01:37:32.830Z,97685.38
2022-12-03T01:41:36.188Z,97687.34
2022-12-03T01:45:37.591Z,97684.34
2022-12-03T01:49:40.630Z,97682.00
2022-12-03T01:53:43.354Z,97678.16
2022-12-03T01:57:48.761Z,97682.91
2022-12-03T02:01:50.227Z,97680.59
2022-12-03T02:05:51.961Z,97680.88
2022-12-03T02:09:54.365Z,97687.78
2022-12-03T02:13:59.660Z,97679.00
2022-12-03T02:18:01.581Z,97680.41
2022-12-03T02:22:05.547Z,97673.19
2022-12-03T02:26:08.712Z,97672.19
2022-12-03T02:30:10.758Z,97668.03
2022-12-03T02:34:26.981Z,97677.97
2022-12-03T02:38:29.786Z,97675.03
2022-12-03T02:42:32.541Z,97674.38
2022-12-03T02:46:34.219Z,97665.88
2022-12-03T02:50:37.484Z,97674.47
2022-12-03T02:54:38.989Z,97671.09
2022-12-03T02:58:42.807Z,97678.19
2022-12-03T03:02:45.143Z,97668.59
2022-12-03T03:06:46.554Z,97674.38
2022-12-03T03:10:48.227Z,97677.28
2022-12-03T03:14:51.098Z,97676.16
2022-12-03T03:18:52.622Z,97685.38
2022-12-03T03:22:53.987Z,97684.88
2022-12-03T03:26:55.405Z,97692.47
2022-12-03T03:31:00.001Z,97691.38
2022-12-03T03:35:01.739Z,97682.50
2022-12-03T03:39:03.365Z,97680.38
2022-12-03T03:43:05.083Z,97693.44
2022-12-03T03:47:07.914Z,97686.81
2022-12-03T03:51:10.068Z,97691.78
2022-12-03T03:55:12.000Z,97682.81
2022-12-03T03:59:13.856Z,97679.38
2022-12-03T04:03:16.643Z,97688.09
2022-12-03T04:07:18.051Z,97684.13
2022-12-03T04:11:19.402Z,97680.50
2022-12-03T04:15:20.815Z,97673.34
2022-12-03T04:19:23.564Z,97677.63
2022-12-03T04:23:30.617Z,97680.84
2022-12-03T04:27:32.358Z,97680.22
2022-12-03T04:31:33.742Z,97668.81
2022-12-03T04:35:36.594Z,97663.75
2022-12-03T04:39:38.017Z,97667.13
2022-12-03T04:43:39.403Z,97667.84
2022-12-03T04:47:40.754Z,97671.69
2022-12-03T04:51:43.482Z,97675.72
2022-12-03T04:55:44.885Z,97662.91
2022-12-03T04:59:46.296Z,97664.56
2022-12-03T05:03:47.678Z,97667.34
2022-12-03T05:07:50.453Z,97663.75
2022-12-03T05:11:51.827Z,97653.03
2022-12-03T05:15:53.198Z,97646.56
2022-12-03T05:19:54.560Z,97641.59
2022-12-03T05:23:57.329Z,97643.66
2022-12-03T05:27:58.669Z,97645.25
2022-12-03T05:32:00.025Z,97651.69
2022-12-03T05:36:01.485Z,97662.81
2022-12-03T05:40:04.860Z,97668.91
2022-12-03T05:44:06.262Z,97666.41
2022-12-03T05:48:08.971Z,97671.88
2022-12-03T05:52:10.382Z,97674.66
2022-12-03T05:56:13.096Z,97667.06
2022-12-03T06:00:15.792Z,97689.16
2022-12-03T06:04:17.156Z,97687.03
2022-12-03T06:08:18.605Z,97683.50
2022-12-03T06:12:21.385Z,97675.34
2022-12-03T06:16:22.837Z,97682.25
2022-12-03T06:20:24.240Z,97679.81
2022-12-03T06:24:25.655Z,97680.81
2022-12-03T06:28:28.364Z,97685.94
2022-12-03T06:32:29.720Z,97687.50
2022-12-03T06:36:31.079Z,97690.59
2022-12-03T06:40:32.448Z,97690.81
2022-12-03T06:44:35.165Z,97698.75
2022-12-03T06:48:36.609Z,97689.72
2022-12-03T06:52:37.986Z,97699.06
2022-12-03T06:56:45.160Z,97683.81
2022-12-03T07:00:48.233Z,97700.44
2022-12-03T07:04:49.609Z,97687.72
2022-12-03T07:08:50.968Z,97689.91
2022-12-03T07:12:52.344Z,97688.38
2022-12-03T07:16:55.090Z,97676.34
2022-12-03T07:20:56.444Z,97679.81
2022-12-03T07:24:57.808Z,97666.75
2022-12-03T07:28:59.199Z,97667.47
2022-12-03T07:33:01.930Z,97667.16
2022-12-03T07:37:03.307Z,97669.88
2022-12-03T07:41:04.755Z,97670.13
2022-12-03T07:45:06.769Z,97668.66
2022-12-03T07:49:09.577Z,97669.72
2022-12-03T07:53:10.914Z,97663.56
2022-12-03T07:57:12.408Z,97661.47
2022-12-03T08:01:13.834Z,97672.53
2022-12-03T08:05:16.948Z,97658.41
2022-12-03T08:09:18.309Z,97663.03
2022-12-03T08:13:19.707Z,97659.56
2022-12-03T08:17:21.180Z,97659.66
2022-12-03T08:21:23.934Z,97656.59
2022-12-03T08:25:26.777Z,97649.63
2022-12-03T08:29:28.121Z,97639.91
2022-12-03T08:33:32.533Z,97638.63
2022-12-03T08:37:35.654Z,97648.00
2022-12-03T08:41:37.018Z,97649.31
2022-12-03T08:45:41.125Z,97641.22
2022-12-03T08:49:45.392Z,97645.19
2022-12-03T08:53:49.002Z,97649.16
2022-12-03T08:57:50.352Z,97662.22
2022-12-03T09:01:51.798Z,97665.41
2022-12-03T09:05:53.286Z,97652.66
2022-12-03T09:09:56.019Z,97644.91
2022-12-03T09:14:00.495Z,97648.28
2022-12-03T09:18:01.979Z,97652.25
2022-12-03T09:22:03.349Z,97651.59
2022-12-03T09:26:06.160Z,97661.78
2022-12-03T09:30:08.182Z,97657.50
2022-12-03T09:34:09.814Z,97665.69
2022-12-03T09:38:11.208Z,97664.69
2022-12-03T09:42:14.588Z,97667.25
2022-12-03T09:46:16.150Z,97657.81
2022-12-03T09:50:19.968Z,97649.22
2022-12-03T09:54:22.286Z,97645.59
2022-12-03T09:58:30.445Z,97671.88
2022-12-03T10:02:34.779Z,97654.50
2022-12-03T10:06:39.831Z,97654.41
2022-12-03T10:10:44.261Z,97657.81
2022-12-03T10:14:47.012Z,97652.19
2022-12-03T10:18:49.756Z,97651.50
2022-12-03T10:22:51.340Z,97647.59
2022-12-03T10:26:53.270Z,97642.31
2022-12-03T10:30:56.550Z,97641.91
2022-12-03T10:35:06.840Z,97628.91
2022-12-03T10:39:10.060Z,97627.84
2022-12-03T10:43:16.265Z,97636.22
2022-12-03T10:47:19.129Z,97626.44
2022-12-03T10:51:21.288Z,97618.28
2022-12-03T10:55:22.702Z,97620.91
2022-12-03T10:59:25.575Z,97624.16
2022-12-03T11:03:29.581Z,97617.94
2022-12-03T11:07:31.653Z,97614.00
2022-12-03T11:11:33.105Z,97614.72
2022-12-03T11:15:42.322Z,97604.34
2022-12-03T11:19:46.721Z,97610.00
2022-12-03T11:24:18.300Z,97605.94
2022-12-03T11:28:33.358Z,97600.06
2022-12-03T11:33:07.803Z,97588.94
2022-12-03T11:37:22.997Z,97590.88
2022-12-03T11:41:26.083Z,97577.94
2022-12-03T11:45:32.680Z,97577.69
2022-12-03T11:49:38.260Z,97573.06
2022-12-03T11:53:41.934Z,97570.16
2022-12-03T11:57:43.350Z,97562.91
2022-12-03T12:01:45.351Z,97563.00
2022-12-03T12:05:46.754Z,97559.78
2022-12-03T12:09:50.601Z,97559.69
2022-12-03T12:13:52.572Z,97554.06
2022-12-03T12:17:53.910Z,97542.13
2022-12-03T12:21:55.391Z,97539.31
2022-12-03T12:26:06.580Z,97538.13
2022-12-03T12:30:12.852Z,97530.16
2022-12-03T12:34:14.539Z,97529.38
2022-12-03T12:38:17.265Z,97520.06
2022-12-03T12:42:30.588Z,97524.25
2022-12-03T12:46:47.779Z,97522.28
2022-12-03T12:50:51.860Z,97519.34
2022-12-03T12:54:53.312Z,97523.59
2022-12-03T12:58:57.062Z,97521.25
2022-12-03T13:03:00.158Z,97525.38
2022-12-03T13:07:01.681Z,97524.06
2022-12-03T13:11:03.312Z,97511.28
2022-12-03T13:15:30.536Z,97514.28
2022-12-03T13:19:39.631Z,97517.44
2022-12-03T13:23:48.601Z,97524.97
2022-12-03T13:27:50.498Z,97514.66
2022-12-03T13:31:55.210Z,97509.56
2022-12-03T13:35:56.783Z,97500.06
2022-12-03T13:40:02.151Z,97487.47
2022-12-03T13:44:12.219Z,97493.13
2022-12-03T13:48:21.597Z,97493.00
2022-12-03T13:52:24.058Z,97491.81
2022-12-03T13:56:26.886Z,97488.00
2022-12-03T14:00:28.269Z,97488.88
2022-12-03T14:04:30.976Z,97480.97
2022-12-03T14:08:32.372Z,97488.88
2022-12-03T14:12:33.908Z,97480.31
2022-12-03T14:16:35.502Z,97483.28
2022-12-03T14:20:38.332Z,97481.22
2022-12-03T14:24:39.674Z,97489.25
2022-12-03T14:28:41.070Z,97490.13
2022-12-03T14:32:42.460Z,97488.84
2022-12-03T14:36:45.208Z,97493.31
2022-12-03T14:40:46.586Z,97485.41
2022-12-03T14:44:48.580Z,97487.78
2022-12-03T14:48:49.963Z,97485.66
2022-12-03T14:52:52.751Z,97482.25
2022-12-03T14:56:54.134Z,97477.38
2022-12-03T15:00:55.589Z,97478.25
2022-12-03T15:04:56.941Z,97482.28
2022-12-03T15:08:59.764Z,97479.56
2022-12-03T15:13:01.146Z,97482.78
2022-12-03T15:17:02.581Z,97478.16
2022-12-03T15:21:04.024Z,97482.28
2022-12-03T15:25:07.264Z,97484.44
2022-12-03T15:29:08.648Z,97477.56
2022-12-03T15:33:10.106Z,97486.00
2022-12-03T15:37:11.491Z,97486.00
2022-12-03T15:41:14.216Z,97485.06
2022-12-03T15:45:15.794Z,97481.44
2022-12-03T15:49:17.193Z,97480.56
2022-12-03T15:53:18.538Z,97483.84
2022-12-03T15:57:21.286Z,97480.78
2022-12-03T16:01:22.703Z,97480.28
2022-12-03T16:05:24.135Z,97479.19
2022-12-03T16:09:27.586Z,97475.44
2022-12-03T16:13:30.611Z,97464.22
2022-12-03T16:17:31.969Z,97460.56
2022-12-03T16:21:33.319Z,97463.94
2022-12-03T16:25:34.715Z,97456.34
2022-12-03T16:29:37.445Z,97450.22
2022-12-03T16:33:38.848Z,97447.16
2022-12-03T16:37:40.217Z,97441.13
2022-12-03T16:41:41.925Z,97446.19
2022-12-03T16:45:44.666Z,97451.72
2022-12-03T16:49:46.050Z,97463.53
2022-12-03T16:53:47.562Z,97451.91
2022-12-03T16:57:49.002Z,97451.91
2022-12-03T17:01:51.763Z,97456.06
2022-12-03T17:05:53.153Z,97447.28
2022-12-03T17:09:54.856Z,97452.06
2022-12-03T17:13:56.422Z,97452.31
2022-12-03T17:17:59.348Z,97453.13
2022-12-03T17:22:00.706Z,97455.13
2022-12-03T17:26:02.099Z,97449.69
2022-12-03T17:30:04.713Z,97443.38
2022-12-03T17:34:07.491Z,97442.97
2022-12-03T17:38:08.895Z,97445.53
2022-12-03T17:42:10.250Z,97445.03
2022-12-03T17:46:11.698Z,97433.06
2022-12-03T17:50:14.467Z,97435.25
2022-12-03T17:54:15.867Z,97439.59
2022-12-03T17:58:17.271Z,97449.91
2022-12-03T18:02:18.770Z,97447.59
2022-12-03T18:06:21.623Z,97447.84
2022-12-03T18:10:23.109Z,97457.00
2022-12-03T18:14:24.472Z,97448.66
2022-12-03T18:18:25.884Z,97459.16
2022-12-03T18:22:28.692Z,97444.28
2022-12-03T18:26:30.189Z,97444.38
2022-12-03T18:30:31.582Z,97436.09
2022-12-03T18:34:32.981Z,97425.44
2022-12-03T18:38:35.759Z,97427.19
2022-12-03T18:42:37.137Z,97420.59
2022-12-03T18:46:53.087Z,97416.47
2022-12-03T18:50:55.215Z,97417.94
2022-12-03T18:54:57.962Z,97401.56
2022-12-03T18:58:59.315Z,97402.56
2022-12-03T19:03:03.418Z,97396.81
2022-12-03T19:07:05.438Z,97397.56
2022-12-03T19:11:10.670Z,97400.53
2022-12-03T19:15:12.058Z,97402.75
2022-12-03T19:19:13.450Z,97409.03
2022-12-03T19:23:15.132Z,97412.41
2022-12-03T19:27:17.933Z,97413.94
2022-12-03T19:31:19.402Z,97409.19
2022-12-03T19:35:21.120Z,97414.06
2022-12-03T19:39:22.503Z,97405.88
2022-12-03T19:43:25.268Z,97411.34
2022-12-03T19:47:26.660Z,97414.69
2022-12-03T19:51:34.588Z,97413.56
2022-12-03T19:55:36.623Z,97414.53
2022-12-03T19:59:39.338Z,97407.78
2022-12-03T20:03:40.827Z,97400.47
2022-12-03T20:07:42.329Z,97402.81
2022-12-03T20:11:43.977Z,97408.28
2022-12-03T20:15:46.731Z,97396.50
2022-12-03T20:19:48.080Z,97391.44
2022-12-03T20:23:49.453Z,97386.47
2022-12-03T20:27:50.854Z,97377.63
2022-12-03T20:31:53.644Z,97384.53
2022-12-03T20:35:55.659Z,97379.84
2022-12-03T20:39:57.336Z,97374.00
2022-12-03T20:43:58.875Z,97369.25
2022-12-03T20:48:01.619Z,97367.97
2022-12-03T20:52:04.887Z,97368.25
2022-12-03T20:56:06.997Z,97367.16
2022-12-03T21:00:08.754Z,97370.19
2022-12-03T21:04:11.792Z,97361.19
2022-12-03T21:08:13.615Z,97356.25
2022-12-03T21:12:15.014Z,97348.28
2022-12-03T21:16:17.636Z,97337.03
2022-12-03T21:20:21.373Z,97342.13
2022-12-03T21:24:22.887Z,97345.66
2022-12-03T21:28:24.316Z,97346.91
2022-12-03T21:32:25.714Z,97344.31
2022-12-03T21:36:28.461Z,97336.16
2022-12-03T21:40:29.819Z,97324.63
2022-12-03T21:44:31.233Z,97335.19
2022-12-03T21:48:33.228Z,97326.69
2022-12-03T21:52:35.981Z,97322.38
2022-12-03T21:56:37.434Z,97313.69
2022-12-03T22:00:38.772Z,97312.34
2022-12-03T22:04:40.138Z,97308.00
2022-12-03T22:08:43.003Z,97308.00
2022-12-03T22:12:44.392Z,97306.97
2022-12-03T22:16:45.734Z,97314.19
2022-12-03T22:20:47.174Z,97299.66
2022-12-03T22:24:49.916Z,97312.44
2022-12-03T22:28:51.312Z,97306.97
2022-12-03T22:32:52.730Z,97303.28
2022-12-03T22:36:54.097Z,97305.25
2022-12-03T22:40:56.874Z,97307.09
2022-12-03T22:44:58.248Z,97308.72
2022-12-03T22:49:06.383Z,97299.44
2022-12-03T22:53:08.489Z,97297.22
2022-12-03T22:57:11.321Z,97299.44
2022-12-03T23:01:19.857Z,97291.69
2022-12-03T23:05:21.230Z,97279.56
2022-12-03T23:09:22.586Z,97284.25
2022-12-03T23:13:25.390Z,97286.16
2022-12-03T23:17:26.734Z,97285.34
2022-12-03T23:21:30.586Z,97276.38
2022-12-03T23:25:32.282Z,97282.13
2022-12-03T23:29:35.413Z,97285.78
2022-12-03T23:33:38.596Z,97271.59
2022-12-03T23:37:42.515Z,97277.75
2022-12-03T23:41:43.945Z,97268.47
2022-12-03T23:45:46.685Z,97265.72
2022-12-03T23:49:48.042Z,97261.91
2022-12-03T23:53:49.816Z,97258.31
2022-12-03T23:57:51.195Z,97247.97
